createdAt,value
2023-04-15T00:01:43.887Z,74.57
2023-04-15T00:06:53.001Z,74.73
2023-04-15T00:11:54.672Z,74.78
2023-04-15T00:16:57.387Z,75.23
2023-04-15T00:22:00.784Z,75.98
2023-04-15T00:27:02.407Z,76.07
2023-04-15T00:32:04.456Z,75.71
2023-04-15T00:37:06.186Z,75.35
2023-04-15T00:42:07.830Z,75.61
2023-04-15T00:47:11.224Z,75.81
2023-04-15T00:52:13.231Z,76.01
2023-04-15T00:57:14.826Z,76.31
2023-04-15T01:02:16.958Z,75.52
2023-04-15T01:07:19.407Z,73.37
2023-04-15T01:12:21.154Z,72.13
2023-04-15T01:17:24.821Z,72.09
2023-04-15T01:22:27.830Z,72.89
2023-04-15T01:27:30.348Z,72.47
2023-04-15T01:32:32.388Z,74.24
2023-04-15T01:37:34.157Z,74.48
2023-04-15T01:42:38.771Z,73.36
2023-04-15T01:47:40.493Z,72.47
2023-04-15T01:52:44.746Z,72.48
2023-04-15T01:57:46.670Z,72.83
2023-04-15T02:02:49.560Z,72.95
2023-04-15T02:07:51.722Z,73.39
2023-04-15T02:12:54.362Z,73.57
2023-04-15T02:17:57.003Z,74.15
2023-04-15T02:22:58.792Z,74.11
2023-04-15T02:28:00.545Z,74.32
2023-04-15T02:33:03.304Z,74.54
2023-04-15T02:38:04.957Z,74.29
2023-04-15T02:43:07.327Z,74.32
2023-04-15T02:48:09.849Z,74.42
2023-04-15T02:53:11.710Z,74.85
2023-04-15T02:58:13.497Z,74.77
2023-04-15T03:03:15.539Z,75.03
2023-04-15T03:08:17.411Z,75.82
2023-04-15T03:13:20.564Z,75.95
2023-04-15T03:18:23.509Z,76.19
2023-04-15T03:23:25.598Z,76.40
2023-04-15T03:28:29.584Z,76.39
2023-04-15T03:33:32.196Z,76.53
2023-04-15T03:38:34.064Z,76.92
2023-04-15T03:43:35.753Z,77.17
2023-04-15T03:48:37.594Z,77.46
2023-04-15T03:53:39.224Z,77.35
2023-04-15T03:58:40.861Z,77.63
2023-04-15T04:03:42.964Z,77.97
2023-04-15T04:08:44.683Z,77.79
2023-04-15T04:13:46.577Z,78.15
2023-04-15T04:18:48.544Z,78.47
2023-04-15T04:23:50.709Z,78.67
2023-04-15T04:28:52.333Z,79.01
2023-04-15T04:33:53.976Z,78.85
2023-04-15T04:38:56.184Z,78.86
2023-04-15T04:43:57.941Z,79.04
2023-04-15T04:48:59.948Z,78.75
2023-04-15T04:54:03.706Z,78.92
2023-04-15T04:59:05.798Z,79.09
2023-04-15T05:04:07.910Z,78.48
2023-04-15T05:09:09.705Z,77.92
2023-04-15T05:14:11.490Z,77.70
2023-04-15T05:19:13.281Z,77.51
2023-04-15T05:24:14.872Z,76.82
2023-04-15T05:29:16.692Z,76.13
2023-04-15T05:34:18.435Z,75.27
2023-04-15T05:39:20.074Z,74.28
2023-04-15T05:44:21.759Z,73.21
2023-04-15T05:49:23.971Z,72.43
2023-04-15T05:54:27.850Z,71.38
2023-04-15T05:59:29.610Z,69.39
2023-04-15T06:04:32.746Z,66.99
2023-04-15T06:09:34.694Z,64.51
2023-04-15T06:14:36.310Z,62.79
2023-04-15T06:19:38.141Z,60.62
2023-04-15T06:24:39.828Z,59.07
2023-04-15T06:29:41.464Z,58.05
2023-04-15T06:34:43.290Z,54.48
2023-04-15T06:39:44.940Z,49.28
2023-04-15T06:44:46.980Z,44.40
2023-04-15T06:49:48.599Z,41.70
2023-04-15T06:54:50.226Z,39.53
2023-04-15T06:59:54.550Z,38.28
2023-04-15T07:04:57.021Z,37.58
2023-04-15T07:09:58.717Z,35.41
2023-04-15T07:15:00.379Z,32.98
2023-04-15T07:20:02.691Z,32.04
2023-04-15T07:25:05.040Z,30.93
2023-04-15T07:30:07.440Z,29.83
2023-04-15T07:35:10.715Z,30.01
2023-04-15T07:40:12.611Z,30.09
2023-04-15T07:45:14.273Z,29.92
2023-04-15T07:50:16.250Z,28.23
2023-04-15T07:55:20.048Z,28.12
2023-04-15T08:00:22.167Z,27.67
2023-04-15T08:05:24.064Z,28.29
2023-04-15T08:10:25.913Z,28.18
2023-04-15T08:15:28.424Z,28.32
2023-04-15T08:20:30.201Z,28.11
2023-04-15T08:25:31.810Z,27.64
2023-04-15T08:30:33.661Z,26.89
2023-04-15T08:35:35.436Z,27.48
2023-04-15T08:40:45.521Z,26.36
2023-04-15T08:45:48.690Z,26.34
2023-04-15T08:50:51.356Z,26.63
2023-04-15T08:55:57.301Z,28.01
2023-04-15T09:00:58.926Z,27.24
2023-04-15T09:06:00.867Z,27.48
2023-04-15T09:11:05.624Z,27.80
2023-04-15T09:16:08.377Z,28.56
2023-04-15T09:21:15.626Z,28.46
2023-04-15T09:26:17.317Z,28.63
2023-04-15T09:31:29.440Z,29.46
2023-04-15T09:36:51.792Z,28.80
2023-04-15T09:42:07.126Z,28.84
2023-04-15T09:47:08.736Z,29.83
2023-04-15T09:52:14.031Z,31.01
2023-04-15T09:57:15.844Z,31.08
2023-04-15T10:02:20.776Z,31.62
2023-04-15T10:07:23.410Z,32.21
2023-04-15T10:12:27.316Z,32.39
2023-04-15T10:17:35.539Z,32.62
2023-04-15T10:22:38.143Z,32.52
2023-04-15T10:27:42.182Z,32.56
2023-04-15T10:32:45.166Z,33.53
2023-04-15T10:37:46.988Z,34.72
2023-04-15T10:42:48.530Z,35.82
2023-04-15T10:47:57.599Z,35.98
2023-04-15T10:52:59.627Z,36.06
2023-04-15T10:58:02.304Z,36.83
2023-04-15T11:03:09.233Z,37.09
2023-04-15T11:08:13.077Z,37.77
2023-04-15T11:13:17.291Z,38.16
2023-04-15T11:18:22.231Z,38.41
2023-04-15T11:23:29.060Z,39.01
2023-04-15T11:28:32.098Z,39.70
2023-04-15T11:33:35.005Z,40.61
2023-04-15T11:38:38.025Z,40.50
2023-04-15T11:43:39.730Z,41.03
2023-04-15T11:48:44.821Z,40.08
2023-04-15T11:53:48.699Z,40.01
2023-04-15T11:58:57.154Z,39.88
2023-04-15T12:04:01.474Z,39.47
2023-04-15T12:09:07.449Z,39.01
2023-04-15T12:14:10.671Z,38.19
2023-04-15T12:19:14.444Z,38.05
2023-04-15T12:24:21.177Z,37.63
2023-04-15T12:29:26.762Z,36.06
2023-04-15T12:34:50.496Z,36.14
2023-04-15T12:39:53.931Z,36.14
2023-04-15T12:44:55.615Z,38.58
2023-04-15T12:49:57.230Z,39.14
2023-04-15T12:55:00.417Z,40.09
2023-04-15T13:00:02.392Z,40.03
2023-04-15T13:05:04.474Z,39.56
2023-04-15T13:10:06.457Z,39.34
2023-04-15T13:15:11.276Z,39.52
2023-04-15T13:20:12.893Z,39.14
2023-04-15T13:25:23.429Z,38.97
2023-04-15T13:30:25.031Z,40.63
2023-04-15T13:35:26.815Z,40.84
2023-04-15T13:40:28.671Z,41.41
2023-04-15T13:45:30.805Z,40.84
2023-04-15T13:50:32.479Z,39.72
2023-04-15T13:55:35.655Z,39.46
2023-04-15T14:00:37.501Z,39.36
2023-04-15T14:05:39.155Z,39.74
2023-04-15T14:10:41.903Z,41.52
2023-04-15T14:15:43.582Z,41.44
2023-04-15T14:20:45.428Z,41.35
2023-04-15T14:25:48.363Z,43.28
2023-04-15T14:30:50.377Z,44.72
2023-04-15T14:35:52.080Z,50.83
2023-04-15T14:40:53.758Z,54.74
2023-04-15T14:45:55.773Z,57.01
2023-04-15T14:50:58.192Z,57.81
2023-04-15T14:56:00.199Z,57.90
2023-04-15T15:01:03.212Z,58.76
2023-04-15T15:06:04.956Z,59.90
2023-04-15T15:11:06.657Z,58.71
2023-04-15T15:16:08.439Z,57.97
2023-04-15T15:21:10.934Z,58.47
2023-04-15T15:26:12.672Z,60.94
2023-04-15T15:31:14.524Z,61.28
2023-04-15T15:36:16.353Z,60.45
2023-04-15T15:41:18.240Z,60.43
2023-04-15T15:46:20.005Z,60.10
2023-04-15T15:51:21.687Z,59.96
2023-04-15T15:56:23.447Z,61.02
2023-04-15T16:01:25.540Z,63.64
2023-04-15T16:06:27.586Z,65.88
2023-04-15T16:11:29.799Z,67.10
2023-04-15T16:16:31.516Z,67.35
2023-04-15T16:21:34.440Z,67.17
2023-04-15T16:26:36.635Z,69.40
2023-04-15T16:31:39.996Z,73.00
2023-04-15T16:36:42.177Z,74.76
2023-04-15T16:41:43.885Z,76.05
2023-04-15T16:46:45.494Z,77.23
2023-04-15T16:51:47.344Z,77.17
2023-04-15T16:56:49.162Z,77.12
2023-04-15T17:01:50.954Z,77.27
2023-04-15T17:06:53.088Z,77.10
2023-04-15T17:11:54.798Z,76.84
2023-04-15T17:16:56.446Z,77.01
2023-04-15T17:21:58.165Z,77.64
2023-04-15T17:27:02.649Z,78.14
2023-04-15T17:32:05.692Z,78.60
2023-04-15T17:37:07.388Z,78.73
2023-04-15T17:42:12.701Z,79.64
2023-04-15T17:47:15.398Z,80.66
2023-04-15T17:52:16.976Z,80.53
2023-04-15T17:57:18.632Z,80.28
2023-04-15T18:02:20.681Z,80.08
2023-04-15T18:07:22.646Z,80.05
2023-04-15T18:12:24.347Z,80.56
2023-04-15T18:17:26.164Z,81.21
2023-04-15T18:22:28.075Z,80.84
2023-04-15T18:27:34.371Z,81.13
2023-04-15T18:32:36.480Z,81.09
2023-04-15T18:37:38.232Z,80.77
2023-04-15T18:42:39.948Z,80.53
2023-04-15T18:47:42.299Z,80.54
2023-04-15T18:52:44.426Z,80.68
2023-04-15T18:57:46.793Z,80.45
2023-04-15T19:02:50.866Z,80.71
2023-04-15T19:07:52.649Z,80.75
2023-04-15T19:12:55.477Z,81.10
2023-04-15T19:17:58.181Z,82.11
2023-04-15T19:22:59.938Z,81.57
2023-04-15T19:28:01.718Z,81.90
2023-04-15T19:33:03.853Z,81.70
2023-04-15T19:38:05.709Z,81.75
2023-04-15T19:43:07.372Z,81.78
2023-04-15T19:48:09.203Z,81.89
2023-04-15T19:53:10.914Z,81.96
2023-04-15T19:58:12.724Z,82.01
2023-04-15T20:03:14.707Z,82.59
2023-04-15T20:08:16.585Z,82.78
2023-04-15T20:13:18.515Z,82.76
2023-04-15T20:18:20.344Z,82.74
2023-04-15T20:23:22.623Z,82.80
2023-04-15T20:28:27.486Z,82.68
2023-04-15T20:33:29.379Z,82.89
2023-04-15T20:38:31.030Z,82.73
2023-04-15T20:43:33.022Z,82.40
2023-04-15T20:48:34.664Z,82.84
2023-04-15T20:53:36.460Z,83.04
2023-04-15T20:58:38.652Z,82.83
2023-04-15T21:03:40.940Z,83.00
2023-04-15T21:08:42.768Z,83.87
2023-04-15T21:13:51.581Z,83.57
2023-04-15T21:18:54.016Z,83.34
2023-04-15T21:23:55.633Z,83.38
2023-04-15T21:28:57.334Z,83.16
2023-04-15T21:33:59.114Z,83.50
2023-04-15T21:39:01.117Z,83.95
2023-04-15T21:44:04.262Z,83.71
2023-04-15T21:49:09.039Z,83.92
2023-04-15T21:54:19.574Z,83.84
2023-04-15T21:59:21.610Z,83.73
2023-04-15T22:04:23.602Z,83.65
2023-04-15T22:09:25.474Z,83.33
2023-04-15T22:14:28.334Z,84.20
2023-04-15T22:19:29.967Z,84.09
2023-04-15T22:24:39.537Z,83.67
2023-04-15T22:29:42.740Z,83.43
2023-04-15T22:34:44.370Z,83.62
2023-04-15T22:39:46.018Z,83.42
2023-04-15T22:44:48.291Z,83.15
2023-04-15T22:49:49.904Z,83.24
2023-04-15T22:54:51.633Z,83.74
2023-04-15T22:59:53.859Z,84.22
2023-04-15T23:04:55.889Z,84.13
2023-04-15T23:10:00.303Z,83.88
2023-04-15T23:15:24.577Z,84.73
2023-04-15T23:20:26.192Z,84.77
2023-04-15T23:25:27.965Z,84.74
2023-04-15T23:30:30.120Z,84.68
2023-04-15T23:35:31.746Z,84.91
2023-04-15T23:40:34.251Z,85.99
2023-04-15T23:45:36.836Z,85.99
2023-04-15T23:50:39.843Z,85.99
2023-04-15T23:55:41.486Z,85.56
